createdAt,value
2022-11-17T00:01:45.736Z,94392.84
2022-11-17T00:04:15.858Z,94388.56
2022-11-17T00:06:44.872Z,94394.13
2022-11-17T00:09:17.699Z,94393.09
2022-11-17T00:12:03.822Z,94399.72
2022-11-17T00:14:36.976Z,94394.94
2022-11-17T00:17:07.040Z,94391.50
2022-11-17T00:19:54.811Z,94396.00
2022-11-17T00:22:23.629Z,94393.09
2022-11-17T00:24:52.426Z,94387.78
2022-11-17T00:27:21.180Z,94383.03
2022-11-17T00:29:49.827Z,94379.53
2022-11-17T00:32:36.660Z,94374.25
2022-11-17T00:35:07.241Z,94368.41
2022-11-17T00:37:37.163Z,94359.94
2022-11-17T00:40:06.623Z,94360.47
2022-11-17T00:42:35.332Z,94361.00
2022-11-17T00:45:04.036Z,94357.84
2022-11-17T00:47:33.122Z,94356.53
2022-11-17T00:50:01.832Z,94361.28
2022-11-17T00:52:32.036Z,94352.28
2022-11-17T00:55:00.866Z,94350.72
2022-11-17T00:57:29.633Z,94356.56
2022-11-17T01:00:02.703Z,94349.44
2022-11-17T01:02:31.574Z,94355.78
2022-11-17T01:05:00.286Z,94344.16
2022-11-17T01:07:29.034Z,94341.50
2022-11-17T01:09:59.267Z,94335.97
2022-11-17T01:12:27.964Z,94339.94
2022-11-17T01:14:56.604Z,94331.72
2022-11-17T01:17:25.408Z,94322.75
2022-11-17T01:19:54.016Z,94329.88
2022-11-17T01:22:22.694Z,94320.59
2022-11-17T01:24:51.391Z,94316.66
2022-11-17T01:27:21.751Z,94326.94
2022-11-17T01:29:50.430Z,94333.28
2022-11-17T01:32:19.122Z,94334.06
2022-11-17T01:34:48.423Z,94323.75
2022-11-17T01:37:23.453Z,94325.91
2022-11-17T01:39:52.123Z,94314.50
2022-11-17T01:42:23.065Z,94325.09
2022-11-17T01:44:56.576Z,94324.03
2022-11-17T01:47:27.604Z,94326.94
2022-11-17T01:49:57.432Z,94313.97
2022-11-17T01:52:26.083Z,94311.06
2022-11-17T01:54:55.006Z,94307.34
2022-11-17T01:57:26.446Z,94305.50
2022-11-17T01:59:56.159Z,94295.69
2022-11-17T02:02:24.883Z,94301.53
2022-11-17T02:04:56.156Z,94295.44
2022-11-17T02:07:27.333Z,94297.03
2022-11-17T02:09:56.105Z,94288.56
2022-11-17T02:12:27.453Z,94292.00
2022-11-17T02:14:56.291Z,94284.84
2022-11-17T02:17:25.358Z,94282.78
2022-11-17T02:19:57.956Z,94283.31
2022-11-17T02:22:40.231Z,94273.28
2022-11-17T02:25:28.736Z,94271.94
2022-11-17T02:28:12.635Z,94280.94
2022-11-17T02:30:43.299Z,94264.00
2022-11-17T02:33:14.017Z,94259.50
2022-11-17T02:35:44.741Z,94264.81
2022-11-17T02:38:19.098Z,94268.50
2022-11-17T02:40:49.931Z,94275.13
2022-11-17T02:43:38.289Z,94271.44
2022-11-17T02:46:08.545Z,94278.81
2022-11-17T02:48:39.066Z,94274.59
2022-11-17T02:51:09.192Z,94271.41
2022-11-17T02:53:38.283Z,94268.25
2022-11-17T02:56:08.269Z,94269.56
2022-11-17T02:58:38.421Z,94268.75
2022-11-17T03:01:24.381Z,94267.44
2022-11-17T03:04:02.011Z,94259.53
2022-11-17T03:06:36.116Z,94252.09
2022-11-17T03:09:12.276Z,94256.84
2022-11-17T03:11:50.955Z,94259.78
2022-11-17T03:14:25.900Z,94247.88
2022-11-17T03:16:58.268Z,94252.91
2022-11-17T03:19:28.707Z,94247.63
2022-11-17T03:22:00.430Z,94259.50
2022-11-17T03:24:30.557Z,94261.91
2022-11-17T03:27:02.316Z,94256.06
2022-11-17T03:29:33.083Z,94266.13
2022-11-17T03:32:03.494Z,94264.28
2022-11-17T03:34:35.340Z,94251.31
2022-11-17T03:37:04.871Z,94253.44
2022-11-17T03:39:34.060Z,94249.47
2022-11-17T03:42:04.282Z,94256.59
2022-11-17T03:44:35.270Z,94254.47
2022-11-17T03:47:04.048Z,94255.56
2022-11-17T03:49:36.835Z,94252.38
2022-11-17T03:52:05.735Z,94256.31
2022-11-17T03:54:34.456Z,94245.50
2022-11-17T03:57:05.921Z,94246.28
2022-11-17T03:59:39.652Z,94242.03
2022-11-17T04:02:08.353Z,94232.25
2022-11-17T04:04:50.827Z,94228.81
2022-11-17T04:07:19.478Z,94226.41
2022-11-17T04:09:48.542Z,94227.22
2022-11-17T04:12:34.461Z,94230.41
2022-11-17T04:15:21.733Z,94217.72
2022-11-17T04:17:50.491Z,94217.19
2022-11-17T04:20:19.160Z,94209.78
2022-11-17T04:23:07.195Z,94204.78
2022-11-17T04:25:53.250Z,94190.47
2022-11-17T04:28:40.208Z,94186.81
2022-11-17T04:31:13.820Z,94186.00
2022-11-17T04:33:43.211Z,94181.25
2022-11-17T04:54:03.852Z,94184.66
2022-11-17T04:56:32.076Z,94174.59
2022-11-17T04:59:00.258Z,94167.69
2022-11-17T05:01:28.754Z,94166.38
2022-11-17T05:03:57.981Z,94153.69
2022-11-17T05:06:27.063Z,94152.84
2022-11-17T05:08:56.659Z,94147.25
2022-11-17T05:11:44.336Z,94141.09
2022-11-17T05:14:12.714Z,94144.75
2022-11-17T05:16:58.880Z,94140.47
2022-11-17T05:19:28.125Z,94137.56
2022-11-17T05:21:56.430Z,94129.09
2022-11-17T05:24:23.768Z,94135.44
2022-11-17T05:26:53.578Z,94132.53
2022-11-17T05:29:22.457Z,94128.28
2022-11-17T05:31:50.779Z,94121.34
2022-11-17T05:34:19.035Z,94107.31
2022-11-17T05:36:47.580Z,94108.84
2022-11-17T05:39:16.408Z,94104.88
2022-11-17T05:41:44.605Z,94101.38
2022-11-17T05:44:14.220Z,94100.59
2022-11-17T05:46:42.359Z,94098.22
2022-11-17T05:49:10.595Z,94097.16
2022-11-17T05:51:38.775Z,94096.06
2022-11-17T05:54:07.073Z,94095.28
2022-11-17T05:56:37.077Z,94098.72
2022-11-17T05:59:12.094Z,94093.94
2022-11-17T06:01:43.343Z,94095.22
2022-11-17T06:04:11.579Z,94095.47
2022-11-17T06:06:39.797Z,94094.13
2022-11-17T06:09:08.013Z,94083.25
2022-11-17T06:11:36.220Z,94079.75
2022-11-17T06:14:04.438Z,94087.97
2022-11-17T06:16:34.189Z,94078.44
2022-11-17T06:19:05.031Z,94075.50
2022-11-17T06:21:49.461Z,94062.53
2022-11-17T06:24:21.482Z,94059.06
2022-11-17T06:26:49.676Z,94071.03
2022-11-17T06:29:17.881Z,94059.06
2022-11-17T06:31:46.148Z,94057.75
2022-11-17T06:34:15.781Z,94062.47
2022-11-17T06:36:44.012Z,94071.72
2022-11-17T06:39:12.169Z,94077.28
2022-11-17T06:41:40.938Z,94075.91
2022-11-17T06:44:09.186Z,94075.63
2022-11-17T06:46:39.094Z,94088.06
2022-11-17T06:49:07.760Z,94089.31
2022-11-17T06:51:42.292Z,94087.19
2022-11-17T06:54:14.819Z,94099.06
2022-11-17T06:56:43.802Z,94099.59
2022-11-17T06:59:12.082Z,94095.88
2022-11-17T07:01:40.326Z,94095.59
2022-11-17T07:04:09.053Z,94095.59
2022-11-17T07:06:39.042Z,94103.00
2022-11-17T07:09:07.400Z,94102.22
2022-11-17T07:11:35.816Z,94096.91
2022-11-17T07:14:04.194Z,94099.28
2022-11-17T07:16:32.772Z,94088.09
2022-11-17T07:19:03.637Z,94085.16
2022-11-17T07:21:32.186Z,94089.41
2022-11-17T07:24:02.060Z,94088.84
2022-11-17T07:26:30.438Z,94092.78
2022-11-17T07:28:58.784Z,94093.31
2022-11-17T07:31:27.127Z,94090.66
2022-11-17T07:33:55.711Z,94095.41
2022-11-17T07:36:24.054Z,94091.69
2022-11-17T07:38:52.406Z,94085.00
2022-11-17T07:41:22.200Z,94088.47
2022-11-17T07:43:50.568Z,94079.69
2022-11-17T07:46:18.874Z,94089.56
2022-11-17T07:48:47.207Z,94079.44
2022-11-17T07:51:17.263Z,94072.25
2022-11-17T07:53:45.650Z,94073.28
2022-11-17T07:56:14.140Z,94063.47
2022-11-17T07:58:43.845Z,94060.81
2022-11-17T08:01:14.763Z,94065.84
2022-11-17T08:03:43.260Z,94066.63
2022-11-17T08:06:11.708Z,94066.34
2022-11-17T08:08:40.259Z,94072.16
2022-11-17T08:11:09.542Z,94068.44
2022-11-17T08:13:38.123Z,94075.84
2022-11-17T08:16:08.490Z,94068.38
2022-11-17T08:18:37.166Z,94069.19
2022-11-17T08:21:06.578Z,94068.88
2022-11-17T08:23:34.982Z,94075.50
2022-11-17T08:26:03.675Z,94079.72
2022-11-17T08:28:32.045Z,94082.91
2022-11-17T08:31:02.022Z,94085.28
2022-11-17T08:33:31.900Z,94084.19
2022-11-17T08:36:00.302Z,94080.75
2022-11-17T08:38:29.315Z,94072.78
2022-11-17T08:40:57.878Z,94072.22
2022-11-17T08:43:26.263Z,94063.19
2022-11-17T08:45:54.630Z,94073.81
2022-11-17T08:48:22.941Z,94067.72
2022-11-17T08:50:52.717Z,94049.66
2022-11-17T08:53:21.850Z,94051.25
2022-11-17T08:55:50.257Z,94031.59
2022-11-17T08:58:18.645Z,94048.31
2022-11-17T09:00:47.833Z,94048.03
2022-11-17T09:03:16.307Z,94059.13
2022-11-17T09:05:47.106Z,94065.47
2022-11-17T09:08:56.027Z,94059.28
2022-11-17T09:11:06.033Z,94076.19
2022-11-17T09:13:34.357Z,94072.91
2022-11-17T09:16:03.638Z,94070.66
2022-11-17T09:18:32.068Z,94065.00
2022-11-17T09:21:02.007Z,94054.81
2022-11-17T09:23:32.457Z,94041.44
2022-11-17T09:26:00.942Z,94044.34
2022-11-17T09:28:29.239Z,94062.13
2022-11-17T09:30:59.206Z,94045.97
2022-11-17T09:33:29.607Z,94054.47
2022-11-17T09:35:58.675Z,94066.38
2022-11-17T09:38:27.256Z,94060.69
2022-11-17T09:40:58.565Z,94059.75
2022-11-17T09:43:30.164Z,94055.63
2022-11-17T09:46:07.195Z,94048.06
2022-11-17T09:48:42.048Z,94040.88
2022-11-17T09:51:12.842Z,94044.53
2022-11-17T09:53:44.691Z,94041.22
2022-11-17T09:56:14.817Z,94037.88
2022-11-17T09:58:46.087Z,94030.00
2022-11-17T10:01:15.067Z,94039.84
2022-11-17T10:03:46.146Z,94029.53
2022-11-17T10:06:17.457Z,94032.59
2022-11-17T10:08:49.571Z,94045.31
2022-11-17T10:11:34.202Z,94035.66
2022-11-17T10:14:13.107Z,94030.91
2022-11-17T10:16:43.388Z,94035.25
2022-11-17T10:19:18.203Z,94051.28
2022-11-17T10:21:46.693Z,94047.25
2022-11-17T10:24:37.015Z,94047.66
2022-11-17T10:27:07.714Z,94031.69
2022-11-17T10:29:36.095Z,94036.16
2022-11-17T10:32:05.186Z,94027.16
2022-11-17T10:34:40.663Z,94027.94
2022-11-17T10:37:24.558Z,94028.56
2022-11-17T10:39:52.934Z,94014.53
2022-11-17T10:42:27.835Z,94011.09
2022-11-17T10:44:58.095Z,94027.94
2022-11-17T10:47:28.460Z,94024.59
2022-11-17T10:50:16.537Z,94015.94
2022-11-17T10:52:44.925Z,94011.47
2022-11-17T10:55:27.954Z,94001.56
2022-11-17T10:58:00.213Z,94011.41
2022-11-17T11:00:31.053Z,94007.19
2022-11-17T11:03:07.206Z,94004.19
2022-11-17T11:05:35.682Z,93996.19
2022-11-17T11:08:16.193Z,93998.63
2022-11-17T11:10:44.735Z,93996.91
2022-11-17T11:13:17.747Z,93994.59
2022-11-17T11:15:46.054Z,93989.00
2022-11-17T11:18:14.843Z,93988.75
2022-11-17T11:20:46.544Z,93984.88
2022-11-17T11:23:18.000Z,93971.16
2022-11-17T11:25:49.277Z,93980.13
2022-11-17T11:28:25.325Z,94002.06
2022-11-17T11:30:59.086Z,93995.66
2022-11-17T11:33:33.407Z,93986.44
2022-11-17T11:36:30.307Z,93992.22
2022-11-17T11:39:01.010Z,93990.63
2022-11-17T11:41:47.913Z,93975.97
2022-11-17T11:44:35.524Z,93978.97
2022-11-17T11:47:07.322Z,93987.56
2022-11-17T11:49:38.120Z,93983.97
2022-11-17T11:52:11.359Z,93999.38
2022-11-17T11:54:46.343Z,93993.56
2022-11-17T11:57:19.407Z,93986.81
2022-11-17T11:59:51.707Z,93999.63
2022-11-17T12:02:25.251Z,93993.06
2022-11-17T12:04:58.087Z,93989.66
2022-11-17T12:07:30.801Z,93978.22
2022-11-17T12:10:01.910Z,93981.88
2022-11-17T12:12:32.015Z,93988.59
2022-11-17T12:15:38.291Z,93990.97
2022-11-17T12:18:11.583Z,93991.88
2022-11-17T12:20:58.357Z,93996.19
2022-11-17T12:23:51.043Z,94003.81
2022-11-17T12:26:26.904Z,94006.78
2022-11-17T12:29:34.261Z,94003.13
2022-11-17T12:32:04.322Z,94006.28
2022-11-17T12:34:33.891Z,94008.25
2022-11-17T12:37:27.604Z,94017.13
2022-11-17T12:40:03.650Z,94016.84
2022-11-17T12:42:32.319Z,94017.31
2022-11-17T12:45:07.913Z,94023.41
2022-11-17T12:47:38.760Z,94022.53
2022-11-17T12:50:33.442Z,94008.88
2022-11-17T12:53:32.925Z,94001.59
2022-11-17T12:56:36.929Z,93988.97
2022-11-17T12:59:24.285Z,94000.75
2022-11-17T13:01:55.559Z,93990.34
2022-11-17T13:04:27.684Z,93998.81
2022-11-17T13:07:02.788Z,94008.56
2022-11-17T13:09:31.482Z,94010.34
2022-11-17T13:12:01.042Z,94005.31
2022-11-17T13:14:29.351Z,94017.91
2022-11-17T13:16:57.622Z,94015.34
2022-11-17T13:19:45.888Z,94010.88
2022-11-17T13:22:16.066Z,94002.44
2022-11-17T13:24:45.134Z,94006.63
2022-11-17T13:27:20.279Z,93994.63
2022-11-17T13:29:48.592Z,94003.13
2022-11-17T13:32:18.604Z,93998.31
2022-11-17T13:34:50.735Z,94005.91
2022-11-17T13:37:20.323Z,94006.91
2022-11-17T13:39:59.234Z,94008.97
2022-11-17T13:42:29.241Z,94010.47
2022-11-17T13:44:58.665Z,94002.69
2022-11-17T13:47:43.415Z,94008.50
2022-11-17T13:50:40.669Z,94009.84
2022-11-17T13:53:25.701Z,94010.13
2022-11-17T13:55:54.154Z,94008.06
2022-11-17T13:58:31.736Z,94003.91
2022-11-17T14:01:00.186Z,94009.59
2022-11-17T14:03:36.824Z,94014.13
2022-11-17T14:06:07.867Z,94002.22
2022-11-17T14:08:36.316Z,93999.03
2022-11-17T14:11:21.688Z,94000.72
2022-11-17T14:13:50.721Z,94008.47
2022-11-17T14:16:24.333Z,94007.19
2022-11-17T14:19:03.113Z,94006.09
2022-11-17T14:21:32.921Z,94018.31
2022-11-17T14:24:06.950Z,94019.16
2022-11-17T14:26:35.326Z,94031.09
2022-11-17T14:29:03.871Z,94037.47
2022-11-17T14:31:32.310Z,94044.97
2022-11-17T14:34:01.001Z,94046.63
2022-11-17T14:36:29.639Z,94045.03
2022-11-17T14:38:59.398Z,94057.81
2022-11-17T14:41:27.759Z,94050.91
2022-11-17T14:43:56.041Z,94049.34
2022-11-17T14:46:25.182Z,94049.94
2022-11-17T14:48:53.659Z,94048.06
2022-11-17T14:51:22.614Z,94052.09
2022-11-17T14:53:51.004Z,94057.13
2022-11-17T14:56:21.385Z,94058.69
2022-11-17T14:58:54.259Z,94063.91
2022-11-17T15:01:24.458Z,94057.53
2022-11-17T15:03:53.371Z,94054.59
2022-11-17T15:06:21.833Z,94038.66
2022-11-17T15:08:54.085Z,94047.69
2022-11-17T15:11:23.910Z,94047.69
2022-11-17T15:13:52.182Z,94052.78
2022-11-17T15:16:20.512Z,94049.94
2022-11-17T15:18:49.232Z,94044.09
2022-11-17T15:21:17.566Z,94042.31
2022-11-17T15:23:46.537Z,94046.63
2022-11-17T15:26:15.711Z,94056.75
2022-11-17T15:28:45.580Z,94057.03
2022-11-17T15:31:14.981Z,94052.78
2022-11-17T15:33:43.786Z,94048.84
2022-11-17T15:36:13.305Z,94044.09
2022-11-17T15:38:41.730Z,94054.50
2022-11-17T15:41:10.785Z,94060.09
2022-11-17T15:43:40.698Z,94051.38
2022-11-17T15:46:12.552Z,94049.78
2022-11-17T15:48:43.110Z,94059.91
2022-11-17T15:51:12.137Z,94057.81
2022-11-17T15:53:40.866Z,94061.25
2022-11-17T15:56:10.444Z,94062.28
2022-11-17T15:58:39.971Z,94063.84
2022-11-17T16:01:12.369Z,94058.81
2022-11-17T16:03:41.554Z,94059.91
2022-11-17T16:06:10.660Z,94067.59
2022-11-17T16:08:39.807Z,94076.81
2022-11-17T16:11:09.201Z,94076.03
2022-11-17T16:13:38.780Z,94068.84
2022-11-17T16:16:09.296Z,94068.56
2022-11-17T16:18:40.337Z,94068.28
2022-11-17T16:21:11.266Z,94073.03
2022-11-17T16:23:41.802Z,94071.97
2022-11-17T16:26:11.561Z,94079.16
2022-11-17T16:28:41.544Z,94080.72
2022-11-17T16:31:15.732Z,94082.09
2022-11-17T16:33:50.517Z,94079.19
2022-11-17T16:36:20.765Z,94079.78
2022-11-17T16:39:02.156Z,94087.00
2022-11-17T16:41:33.918Z,94086.00
2022-11-17T16:44:03.792Z,94077.53
2022-11-17T16:46:33.894Z,94080.19
2022-11-17T16:49:05.805Z,94084.88
2022-11-17T16:51:35.779Z,94077.94
2022-11-17T16:54:06.669Z,94082.09
2022-11-17T16:56:36.792Z,94079.28
2022-11-17T16:59:06.580Z,94087.78
2022-11-17T17:01:36.449Z,94084.53
2022-11-17T17:04:08.447Z,94092.50
2022-11-17T17:06:39.057Z,94090.84
2022-11-17T17:09:09.534Z,94090.78
2022-11-17T17:11:39.412Z,94083.31
2022-11-17T17:14:09.895Z,94087.56
2022-11-17T17:16:40.481Z,94089.66
2022-11-17T17:19:12.394Z,94089.56
2022-11-17T17:21:42.541Z,94094.03
2022-11-17T17:24:12.255Z,94092.16
2022-11-17T17:26:42.209Z,94088.91
2022-11-17T17:29:12.754Z,94087.53
2022-11-17T17:31:43.098Z,94085.41
2022-11-17T17:34:14.636Z,94091.22
2022-11-17T17:36:44.498Z,94091.00
2022-11-17T17:39:16.194Z,94095.28
2022-11-17T17:41:46.424Z,94091.66
2022-11-17T17:44:17.352Z,94081.59
2022-11-17T17:46:47.162Z,94090.06
2022-11-17T17:49:19.398Z,94088.06
2022-11-17T17:51:50.090Z,94096.53
2022-11-17T17:54:20.751Z,94084.50
2022-11-17T17:56:50.637Z,94090.06
2022-11-17T17:59:20.509Z,94090.28
2022-11-17T18:01:50.260Z,94092.16
2022-11-17T18:04:21.602Z,94095.88
2022-11-17T18:06:51.779Z,94091.25
2022-11-17T18:09:21.589Z,94097.19
2022-11-17T18:11:51.515Z,94103.06
2022-11-17T18:14:24.966Z,94105.31
2022-11-17T18:16:55.219Z,94100.13
2022-11-17T18:19:32.991Z,94089.66
2022-11-17T18:22:04.689Z,94100.91
2022-11-17T18:24:35.493Z,94097.53
2022-11-17T18:27:05.450Z,94098.69
2022-11-17T18:29:35.306Z,94096.66
2022-11-17T18:32:05.396Z,94107.34
2022-11-17T18:34:37.114Z,94094.41
2022-11-17T18:37:06.896Z,94104.59
2022-11-17T18:39:36.723Z,94102.50
2022-11-17T18:42:06.688Z,94104.41
2022-11-17T18:44:38.004Z,94105.78
2022-11-17T18:47:08.339Z,94104.50
2022-11-17T18:49:39.988Z,94099.72
2022-11-17T18:52:10.243Z,94097.94
2022-11-17T18:54:39.957Z,94092.72
2022-11-17T18:57:09.627Z,94093.28
2022-11-17T18:59:39.380Z,94087.97
2022-11-17T19:02:10.667Z,94083.72
2022-11-17T19:04:42.224Z,94085.66
2022-11-17T19:07:12.421Z,94082.44
2022-11-17T19:09:42.305Z,94078.75
2022-11-17T19:12:12.960Z,94078.50
2022-11-17T19:14:43.036Z,94087.00
2022-11-17T19:17:12.936Z,94086.50
2022-11-17T19:19:44.335Z,94084.34
2022-11-17T19:22:16.883Z,94075.38
2022-11-17T19:24:46.699Z,94084.41
2022-11-17T19:27:16.498Z,94086.84
2022-11-17T19:29:46.711Z,94085.53
2022-11-17T19:32:16.583Z,94086.38
2022-11-17T19:34:48.071Z,94087.19
2022-11-17T19:37:17.803Z,94077.28
2022-11-17T19:39:47.968Z,94077.81
2022-11-17T19:42:17.698Z,94083.13
2022-11-17T19:44:47.736Z,94077.53
2022-11-17T19:47:18.852Z,94070.56
2022-11-17T19:49:50.030Z,94073.75
2022-11-17T19:52:19.838Z,94071.03
2022-11-17T19:54:50.093Z,94066.22
2022-11-17T19:57:20.118Z,94068.09
2022-11-17T19:59:50.965Z,94062.22
2022-11-17T20:02:19.517Z,94056.81
2022-11-17T20:04:49.198Z,94045.66
2022-11-17T20:07:17.574Z,94054.31
2022-11-17T20:09:46.653Z,94049.53
2022-11-17T20:12:15.013Z,94056.94
2022-11-17T20:14:43.332Z,94055.56
2022-11-17T20:17:11.547Z,94050.47
2022-11-17T20:19:39.809Z,94050.47
2022-11-17T20:22:09.425Z,94057.88
2022-11-17T20:24:37.889Z,94069.28
2022-11-17T20:27:06.221Z,94070.56
2022-11-17T20:29:34.479Z,94078.75
2022-11-17T20:32:02.732Z,94067.84
2022-11-17T20:34:30.944Z,94062.28
2022-11-17T20:36:59.482Z,94071.59
2022-11-17T20:39:29.129Z,94075.03
2022-11-17T20:41:57.364Z,94071.63
2022-11-17T20:44:25.564Z,94082.56
2022-11-17T20:46:54.977Z,94091.09
2022-11-17T20:49:23.270Z,94091.38
2022-11-17T20:51:51.744Z,94088.47
2022-11-17T20:54:19.935Z,94098.63
2022-11-17T20:56:49.605Z,94081.16
2022-11-17T20:59:20.246Z,94090.25
2022-11-17T21:01:49.343Z,94075.44
2022-11-17T21:04:17.841Z,94079.22
2022-11-17T21:06:46.038Z,94093.34
2022-11-17T21:09:14.710Z,94091.00
2022-11-17T21:11:57.876Z,94101.13
2022-11-17T21:14:27.813Z,94099.28
2022-11-17T21:16:57.542Z,94101.34
2022-11-17T21:19:26.077Z,94096.91
2022-11-17T21:21:54.655Z,94095.31
2022-11-17T21:24:23.005Z,94105.13
2022-11-17T21:26:51.867Z,94100.16
2022-11-17T21:29:20.229Z,94102.75
2022-11-17T21:31:50.362Z,94104.59
2022-11-17T21:34:18.811Z,94108.88
2022-11-17T21:36:47.088Z,94112.84
2022-11-17T21:39:18.459Z,94120.00
2022-11-17T21:41:47.040Z,94127.19
2022-11-17T21:44:15.494Z,94117.88
2022-11-17T21:46:43.944Z,94110.19
2022-11-17T21:49:13.812Z,94111.44
2022-11-17T21:51:42.430Z,94110.94
2022-11-17T21:54:10.978Z,94110.19
2022-11-17T21:56:40.322Z,94110.97
2022-11-17T21:59:11.842Z,94109.63
2022-11-17T22:01:40.129Z,94104.28
2022-11-17T22:04:08.368Z,94120.94
2022-11-17T22:06:38.898Z,94122.53
2022-11-17T22:09:07.095Z,94125.41
2022-11-17T22:11:38.832Z,94128.03
2022-11-17T22:14:12.248Z,94127.56
2022-11-17T22:16:41.605Z,94123.31
2022-11-17T22:19:10.062Z,94125.19
2022-11-17T22:21:39.807Z,94130.25
2022-11-17T22:24:09.459Z,94115.41
2022-11-17T22:26:38.584Z,94128.94
2022-11-17T22:29:07.190Z,94131.38
2022-11-17T22:31:35.518Z,94138.28
2022-11-17T22:34:03.698Z,94139.84
2022-11-17T22:36:32.385Z,94137.19
2022-11-17T22:39:02.237Z,94138.81
2022-11-17T22:41:30.470Z,94135.94
2022-11-17T22:43:58.845Z,94142.09
2022-11-17T22:46:27.905Z,94142.63
2022-11-17T22:48:56.192Z,94138.13
2022-11-17T22:51:42.596Z,94139.19
2022-11-17T22:54:12.888Z,94136.22
2022-11-17T22:56:41.125Z,94138.59
2022-11-17T22:59:09.600Z,94137.50
2022-11-17T23:01:37.904Z,94144.47
2022-11-17T23:04:06.885Z,94138.38
2022-11-17T23:06:35.560Z,94136.28
2022-11-17T23:09:03.976Z,94143.44
2022-11-17T23:11:38.168Z,94143.94
2022-11-17T23:14:07.198Z,94150.25
2022-11-17T23:16:35.469Z,94144.41
2022-11-17T23:19:03.706Z,94155.47
2022-11-17T23:21:32.193Z,94147.47
2022-11-17T23:24:00.410Z,94150.66
2022-11-17T23:26:28.774Z,94155.66
2022-11-17T23:28:58.392Z,94143.97
2022-11-17T23:31:28.012Z,94146.34
2022-11-17T23:33:56.501Z,94145.56
2022-11-17T23:36:24.742Z,94151.09
2022-11-17T23:38:53.219Z,94154.28
2022-11-17T23:41:21.587Z,94140.69
2022-11-17T23:43:50.905Z,94145.75
2022-11-17T23:46:21.203Z,94143.91
2022-11-17T23:48:49.733Z,94152.91
2022-11-17T23:51:19.418Z,94149.44
2022-11-17T23:53:47.780Z,94146.31
2022-11-17T23:56:16.071Z,94152.69
2022-11-17T23:58:44.633Z,94151.91
